Nearby METAR Reports

Aktualna pogoda na lotniskach (dane METAR)

 

EPGD - Gdansk/Rebiechow, Poland
Distance from station: ENE 27mi, 44km
Updated: Thu, 09-Jul-2020 9:30am PDT
Light rain, Few clouds
Light rain, Few clouds
 Wind from WSW
Wind: WSW 7 mph , 11 km/h
Temperature: 57°F , 14°C
Dew Point: 55°F , 13°C
Humidity: 94%
Barometer: 29.91 inHg , 1013 hPa
Summary: Light Rain
Clouds: Few Clouds
Visibility: 6 miles , 10 km
Cloud details: Few Clouds 200 ft
2020/07/09 16:30 EPGD 091630Z 25006KT 9999 -RA FEW002 14/13 Q1013 RERA
EPSC - Szczecin/Golenio, Poland
Distance from station: WSW 128mi, 205km
Updated: Thu, 09-Jul-2020 9:30am PDT
Light rain, Mist, Overcast
Light rain, Mist, Overcast
 Wind from SE
Wind: SE 14 mph , 22 km/h
Temperature: 59°F , 15°C
Dew Point: 59°F , 15°C
Humidity: 100%
Barometer: 29.83 inHg , 1010 hPa
Summary: Light rain, Mist
Clouds: Overcast
Visibility: 3 miles , 5 km
Cloud details: Mostly Cloudy 200 ft
Overcast 300 ft
2020/07/09 16:30 EPSC 091630Z 13012KT 5000 -RA BR BKN002 OVC003 15/15 Q1010 RERA
 
EPPO - Poznan/Lawica, Poland
Distance from station: SSW 131mi, 210km
Updated: Thu, 09-Jul-2020 9:30am PDT
Light rain, Showers, Overcast
Light rain, Showers, Overcast
 Wind from S
Wind: S 9 mph , 15 km/h
Temperature: 61°F , 16°C
Dew Point: 59°F , 15°C
Humidity: 94%
Barometer: 29.91 inHg , 1013 hPa
Summary: Light rain, Showers
Clouds: Overcast
Visibility: 6 miles , 10 km
Cloud details: Few Clouds 1400 ft
Overcast 2600 ft
2020/07/09 16:30 EPPO 091630Z 17008KT 9999 -SHRA FEW014 OVC026 16/15 Q1013
EPLL - Lodz/Lublinek, Poland
Distance from station: SSE 184mi, 296km
Updated: Thu, 09-Jul-2020 9:30am PDT
Few Clouds
Few Clouds
 Wind from varies
Wind: varies 2 mph , 4 km/h
Temperature: 66°F , 19°C
Dew Point: 55°F , 13°C
Humidity: 68%
Barometer: 29.97 inHg , 1015 hPa
Clouds: Few Clouds
Visibility: 6 miles , 10 km
Cloud details: Few Clouds 4700 ft
2020/07/09 16:30 EPLL 091630Z VRB02KT 9999 FEW047 19/13 Q1015
 
EPWA - Warsaw/Okecie, Poland
Distance from station: SE 191mi, 307km
Updated: Thu, 09-Jul-2020 9:30am PDT
Clear
Clear
 Wind from S
Wind: S 6 mph , 9 km/h
Temperature: 68°F , 20°C
Dew Point: 52°F , 11°C
Humidity: 56%
Barometer: 29.97 inHg , 1015 hPa
Summary: Clear
Visibility: greater than 7 miles , 10 km
2020/07/09 16:30 EPWA 091630Z 19005KT CAVOK 20/11 Q1015 NOSIG
EPWR - Wroclaw/Strachow, Poland
Distance from station: S 219mi, 352km
Updated: Thu, 09-Jul-2020 9:30am PDT
Few Clouds
Few Clouds
 Wind from SW
Wind: SW 9 mph , 15 km/h
Temperature: 70°F , 21°C
Dew Point: 59°F , 15°C
Humidity: 69%
Barometer: 29.94 inHg , 1014 hPa
Clouds: Few Clouds
Visibility: 6 miles , 10 km
Cloud details: Few Clouds 4300 ft
2020/07/09 16:30 EPWR 091630Z 23008KT 9999 FEW043 21/15 Q1014

Metar display script from Saratoga-Weather.org